createdAt,value
2019-02-17T00:00:45.292Z,99.90
2019-02-17T00:03:14.503Z,99.90
2019-02-17T00:05:43.745Z,99.90
2019-02-17T00:08:12.978Z,99.90
2019-02-17T00:10:42.246Z,99.90
2019-02-17T00:13:11.452Z,99.90
2019-02-17T00:15:40.887Z,99.90
2019-02-17T00:18:10.248Z,99.90
2019-02-17T00:20:39.521Z,99.90
2019-02-17T00:23:08.799Z,99.90
2019-02-17T00:25:38.041Z,99.90
2019-02-17T00:28:07.233Z,99.90
2019-02-17T00:30:36.438Z,99.90
2019-02-17T00:33:05.619Z,99.90
2019-02-17T00:35:34.852Z,99.90
2019-02-17T00:38:04.336Z,99.90
2019-02-17T00:40:33.652Z,99.90
2019-02-17T00:43:02.817Z,99.90
2019-02-17T00:45:32.058Z,99.90
2019-02-17T00:48:01.308Z,99.90
2019-02-17T00:50:30.570Z,99.90
2019-02-17T00:52:59.756Z,99.90
2019-02-17T00:55:28.975Z,99.90
2019-02-17T00:57:58.261Z,99.90
2019-02-17T01:00:27.437Z,99.90
2019-02-17T01:02:56.710Z,99.90
2019-02-17T01:05:25.987Z,99.90
2019-02-17T01:07:55.215Z,99.90
2019-02-17T01:10:24.372Z,99.90
2019-02-17T01:12:53.719Z,99.90
2019-02-17T01:15:22.988Z,99.90
2019-02-17T01:17:52.485Z,99.90
2019-02-17T01:20:21.764Z,99.90
2019-02-17T01:22:51.041Z,99.90
2019-02-17T01:25:20.271Z,99.90
2019-02-17T01:27:49.516Z,99.90
2019-02-17T01:30:18.779Z,99.90
2019-02-17T01:32:47.948Z,99.90
2019-02-17T01:35:17.145Z,99.90
2019-02-17T01:37:46.287Z,99.90
2019-02-17T01:40:15.657Z,99.90
2019-02-17T01:42:44.936Z,99.90
2019-02-17T01:45:14.122Z,99.90
2019-02-17T01:47:43.391Z,99.90
2019-02-17T01:50:12.647Z,99.90
2019-02-17T01:52:41.928Z,99.90
2019-02-17T01:55:11.133Z,99.90
2019-02-17T01:57:40.280Z,99.90
2019-02-17T02:00:11.424Z,99.90
2019-02-17T02:02:40.695Z,99.90
2019-02-17T02:05:10.015Z,99.90
2019-02-17T02:07:39.420Z,99.90
2019-02-17T02:10:08.726Z,99.90
2019-02-17T02:12:37.919Z,99.90
2019-02-17T02:15:08.034Z,99.90
2019-02-17T02:17:37.319Z,99.90
2019-02-17T02:20:07.940Z,99.90
2019-02-17T02:22:37.175Z,99.90
2019-02-17T02:25:06.780Z,99.90
2019-02-17T02:27:36.045Z,99.90
2019-02-17T02:30:06.038Z,99.90
2019-02-17T02:32:35.176Z,99.90
2019-02-17T02:35:04.451Z,99.90
2019-02-17T02:37:33.654Z,99.90
2019-02-17T02:40:02.891Z,99.90
2019-02-17T02:42:32.157Z,99.90
2019-02-17T02:45:01.310Z,99.90
2019-02-17T02:47:30.481Z,99.90
2019-02-17T02:49:59.782Z,99.90
2019-02-17T02:52:28.954Z,99.90
2019-02-17T02:54:58.151Z,99.90
2019-02-17T02:57:27.322Z,99.90
2019-02-17T02:59:56.478Z,99.90
2019-02-17T03:02:25.774Z,99.90
2019-02-17T03:04:55.012Z,99.90
2019-02-17T03:07:24.463Z,99.90
2019-02-17T03:09:53.679Z,99.90
2019-02-17T03:12:22.908Z,99.90
2019-02-17T03:14:52.037Z,99.90
2019-02-17T03:17:21.270Z,99.90
2019-02-17T03:19:50.432Z,99.90
2019-02-17T03:22:19.614Z,99.90
2019-02-17T03:24:48.891Z,99.90
2019-02-17T03:27:18.193Z,99.90
2019-02-17T03:29:47.350Z,99.90
2019-02-17T03:32:16.629Z,99.90
2019-02-17T03:34:45.837Z,99.90
2019-02-17T03:37:15.088Z,99.90
2019-02-17T03:39:44.321Z,99.90
2019-02-17T03:42:13.570Z,99.90
2019-02-17T03:44:42.769Z,99.90
2019-02-17T03:47:12.001Z,99.90
2019-02-17T03:49:41.165Z,99.90
2019-02-17T03:52:10.400Z,99.90
2019-02-17T03:54:39.574Z,99.90
2019-02-17T03:57:08.826Z,99.90
2019-02-17T03:59:38.056Z,99.90
2019-02-17T04:02:07.270Z,99.90
2019-02-17T04:04:36.581Z,99.90
2019-02-17T04:07:05.829Z,99.90
2019-02-17T04:09:35.017Z,99.90
2019-02-17T04:12:04.288Z,99.90
2019-02-17T04:14:33.436Z,99.90
2019-02-17T04:17:02.640Z,99.90
2019-02-17T04:19:31.808Z,99.90
2019-02-17T04:22:01.003Z,99.90
2019-02-17T04:24:30.273Z,99.90
2019-02-17T04:26:59.485Z,99.90
2019-02-17T04:29:28.689Z,99.90
2019-02-17T04:31:57.904Z,99.90
2019-02-17T04:34:27.148Z,99.90
2019-02-17T04:36:56.326Z,99.90
2019-02-17T04:39:25.486Z,99.90
2019-02-17T04:41:54.674Z,99.90
2019-02-17T04:44:23.912Z,99.90
2019-02-17T04:46:53.144Z,99.90
2019-02-17T04:49:22.310Z,99.90
2019-02-17T04:51:51.492Z,99.90
2019-02-17T04:54:20.776Z,99.90
2019-02-17T04:56:49.929Z,99.90
2019-02-17T04:59:19.097Z,99.90
2019-02-17T05:01:48.348Z,99.90
2019-02-17T05:04:17.530Z,99.90
2019-02-17T05:06:46.707Z,99.90
2019-02-17T05:09:15.934Z,99.90
2019-02-17T05:11:45.219Z,99.90
2019-02-17T05:14:14.499Z,99.90
2019-02-17T05:16:43.737Z,99.90
2019-02-17T05:19:12.977Z,99.90
2019-02-17T05:21:42.227Z,99.90
2019-02-17T05:24:11.400Z,99.90
2019-02-17T05:26:40.605Z,99.90
2019-02-17T05:29:09.791Z,99.90
2019-02-17T05:31:38.998Z,99.90
2019-02-17T05:34:08.195Z,99.90
2019-02-17T05:36:37.624Z,99.90
2019-02-17T05:39:07.219Z,99.90
2019-02-17T05:41:36.405Z,99.90
2019-02-17T05:44:05.608Z,99.90
2019-02-17T05:46:34.824Z,99.90
2019-02-17T05:49:04.082Z,99.90
2019-02-17T05:51:33.250Z,99.90
2019-02-17T05:54:03.447Z,99.90
2019-02-17T05:56:32.723Z,99.90
2019-02-17T05:59:01.878Z,99.90
2019-02-17T06:01:31.027Z,99.90
2019-02-17T06:04:00.202Z,99.90
2019-02-17T06:06:29.490Z,99.90
2019-02-17T06:08:58.671Z,99.90
2019-02-17T06:11:27.971Z,99.90
2019-02-17T06:13:57.214Z,99.90
2019-02-17T06:16:26.471Z,99.90
2019-02-17T06:18:55.663Z,99.90
2019-02-17T06:21:24.844Z,99.90
2019-02-17T06:23:54.013Z,99.90
2019-02-17T06:26:23.233Z,99.90
2019-02-17T06:28:52.508Z,99.90
2019-02-17T06:31:21.732Z,99.90
2019-02-17T06:33:50.884Z,99.90
2019-02-17T06:36:20.156Z,99.90
2019-02-17T06:38:49.448Z,99.90
2019-02-17T06:41:18.630Z,99.90
2019-02-17T06:43:47.891Z,99.90
2019-02-17T06:46:20.653Z,99.90
2019-02-17T06:48:49.823Z,99.90
2019-02-17T06:51:19.021Z,99.90
2019-02-17T06:53:48.254Z,99.90
2019-02-17T06:56:26.217Z,99.90
2019-02-17T06:58:55.475Z,99.90
2019-02-17T07:01:25.126Z,99.90
2019-02-17T07:03:54.335Z,99.90
2019-02-17T07:06:29.553Z,99.90
2019-02-17T07:08:59.199Z,99.90
2019-02-17T07:11:28.481Z,99.90
2019-02-17T07:13:57.747Z,99.90
2019-02-17T07:16:27.030Z,99.90
2019-02-17T07:18:56.236Z,99.90
2019-02-17T07:21:25.461Z,99.90
2019-02-17T07:23:54.793Z,99.90
2019-02-17T07:26:24.104Z,99.90
2019-02-17T07:28:53.309Z,99.90
2019-02-17T07:31:22.784Z,99.90
2019-02-17T07:33:52.296Z,99.90
2019-02-17T07:36:22.202Z,99.90
2019-02-17T07:38:51.821Z,99.90
2019-02-17T07:41:21.076Z,99.90
2019-02-17T07:43:50.274Z,99.90
2019-02-17T07:46:19.576Z,99.90
2019-02-17T07:48:48.775Z,99.90
2019-02-17T07:51:17.949Z,99.90
2019-02-17T07:53:47.233Z,99.90
2019-02-17T07:56:16.585Z,99.90
2019-02-17T07:58:45.798Z,99.90
2019-02-17T08:01:15.075Z,99.90
2019-02-17T08:03:44.271Z,99.90
2019-02-17T08:06:13.436Z,99.90
2019-02-17T08:08:42.724Z,99.90
2019-02-17T08:11:11.950Z,99.90
2019-02-17T08:13:41.205Z,99.90
2019-02-17T08:16:10.454Z,99.90
2019-02-17T08:18:39.642Z,99.90
2019-02-17T08:21:09.006Z,99.90
2019-02-17T08:23:38.318Z,99.90
2019-02-17T08:26:07.601Z,99.90
2019-02-17T08:28:36.867Z,99.90
2019-02-17T08:31:06.066Z,99.90
2019-02-17T08:33:35.356Z,99.90
2019-02-17T08:36:04.726Z,99.90
2019-02-17T08:38:34.231Z,99.90
2019-02-17T08:41:03.469Z,99.90
2019-02-17T08:43:32.771Z,99.90
2019-02-17T08:46:02.041Z,99.90
2019-02-17T08:48:32.915Z,99.90
2019-02-17T08:51:02.268Z,99.90
2019-02-17T08:53:31.549Z,99.90
2019-02-17T08:56:00.769Z,99.90
2019-02-17T08:58:30.070Z,99.90
2019-02-17T09:00:59.307Z,99.90
2019-02-17T09:03:28.525Z,99.90
2019-02-17T09:05:57.845Z,99.90
2019-02-17T09:08:27.091Z,99.90
2019-02-17T09:10:56.446Z,99.90
2019-02-17T09:13:25.742Z,99.90
2019-02-17T09:15:55.114Z,99.90
2019-02-17T09:18:24.630Z,99.90
2019-02-17T09:20:53.937Z,99.90
2019-02-17T09:23:23.245Z,99.90
2019-02-17T09:25:52.538Z,99.90
2019-02-17T09:28:21.776Z,99.90
2019-02-17T09:30:51.107Z,99.90
2019-02-17T09:33:20.298Z,99.90
2019-02-17T09:35:49.638Z,99.90
2019-02-17T09:38:18.870Z,99.90
2019-02-17T09:40:48.674Z,99.90
2019-02-17T09:43:18.012Z,99.90
2019-02-17T09:45:47.260Z,99.90
2019-02-17T09:48:16.571Z,99.90
2019-02-17T09:50:46.023Z,99.90
2019-02-17T09:53:15.760Z,99.90
2019-02-17T09:55:45.066Z,99.90
2019-02-17T09:58:14.395Z,99.90
2019-02-17T10:00:43.716Z,99.90
2019-02-17T10:03:12.908Z,99.90
2019-02-17T10:05:42.213Z,99.90
2019-02-17T10:08:11.425Z,99.90
2019-02-17T10:10:40.762Z,99.90
2019-02-17T10:13:09.989Z,99.90
2019-02-17T10:15:39.301Z,99.90
2019-02-17T10:18:08.864Z,99.90
2019-02-17T10:20:38.155Z,99.90
2019-02-17T10:23:07.458Z,99.90
2019-02-17T10:25:36.736Z,99.90
2019-02-17T10:28:06.037Z,99.90
2019-02-17T10:30:35.389Z,99.90
2019-02-17T10:33:04.729Z,99.90
2019-02-17T10:35:34.243Z,99.90
2019-02-17T10:38:03.541Z,99.90
2019-02-17T10:40:32.820Z,99.90
2019-02-17T10:43:03.639Z,99.90
2019-02-17T10:45:33.150Z,99.90
2019-02-17T10:48:02.462Z,99.90
2019-02-17T10:50:31.727Z,99.90
2019-02-17T10:53:01.021Z,99.90
2019-02-17T10:55:30.232Z,99.90
2019-02-17T10:57:59.516Z,99.90
2019-02-17T11:00:29.993Z,99.90
2019-02-17T11:03:56.411Z,99.90
2019-02-17T11:06:25.764Z,99.90
2019-02-17T11:08:55.034Z,99.90
2019-02-17T11:11:24.347Z,99.90
2019-02-17T11:13:53.645Z,99.90
2019-02-17T11:16:22.884Z,99.90
2019-02-17T11:18:52.124Z,99.90
2019-02-17T11:21:21.462Z,99.90
2019-02-17T11:23:50.951Z,99.90
2019-02-17T11:26:20.333Z,99.90
2019-02-17T11:28:49.596Z,99.90
2019-02-17T11:31:18.880Z,99.90
2019-02-17T11:33:48.055Z,99.90
2019-02-17T11:36:17.336Z,99.90
2019-02-17T11:38:46.656Z,99.90
2019-02-17T11:41:15.850Z,99.90
2019-02-17T11:43:45.125Z,99.90
2019-02-17T11:46:14.312Z,99.90
2019-02-17T11:48:43.689Z,99.90
2019-02-17T11:51:12.990Z,99.90
2019-02-17T11:53:42.315Z,99.90
2019-02-17T11:56:11.864Z,99.90
2019-02-17T11:58:41.087Z,99.90
2019-02-17T12:01:10.286Z,99.90
2019-02-17T12:03:39.503Z,99.90
2019-02-17T12:06:08.905Z,99.90
2019-02-17T12:08:38.176Z,99.90
2019-02-17T12:11:07.455Z,99.90
2019-02-17T12:13:36.660Z,99.90
2019-02-17T12:16:05.956Z,99.90
2019-02-17T12:18:35.194Z,99.90
2019-02-17T12:21:26.879Z,99.90
2019-02-17T12:24:16.357Z,99.90
2019-02-17T12:27:05.292Z,99.90
2019-02-17T12:29:38.433Z,99.90
2019-02-17T12:32:07.890Z,99.90
2019-02-17T12:34:37.123Z,99.90
2019-02-17T12:37:06.386Z,99.90
2019-02-17T12:39:35.886Z,99.90
2019-02-17T12:42:05.119Z,99.90
2019-02-17T12:44:35.623Z,99.90
2019-02-17T12:47:05.070Z,99.90
2019-02-17T12:49:34.283Z,99.90
2019-02-17T12:52:03.606Z,99.90
2019-02-17T12:54:32.854Z,99.90
2019-02-17T12:57:02.390Z,99.90
2019-02-17T12:59:31.759Z,99.90
2019-02-17T13:02:00.997Z,99.90
2019-02-17T13:04:30.199Z,99.90
2019-02-17T13:06:59.425Z,99.90
2019-02-17T13:09:28.674Z,99.90
2019-02-17T13:11:58.014Z,99.90
2019-02-17T13:14:27.292Z,99.90
2019-02-17T13:16:56.611Z,99.00
2019-02-17T13:19:25.876Z,99.50
2019-02-17T13:21:55.057Z,99.90
2019-02-17T13:24:24.327Z,99.90
2019-02-17T13:26:53.512Z,99.90
2019-02-17T13:29:22.858Z,99.80
2019-02-17T13:31:52.109Z,98.30
2019-02-17T13:34:21.444Z,99.30
2019-02-17T13:36:50.907Z,99.90
2019-02-17T13:39:20.239Z,99.40
2019-02-17T13:41:49.464Z,98.50
2019-02-17T13:44:18.790Z,99.90
2019-02-17T13:46:48.083Z,99.90
2019-02-17T13:49:17.420Z,99.90
2019-02-17T13:51:46.709Z,99.90
2019-02-17T13:54:16.037Z,99.90
2019-02-17T13:56:45.419Z,99.90
2019-02-17T13:59:14.907Z,99.90
2019-02-17T14:01:44.196Z,99.90
2019-02-17T14:04:13.519Z,99.90
2019-02-17T14:06:42.840Z,99.90
2019-02-17T14:09:46.067Z,99.90
2019-02-17T14:12:17.068Z,99.90
2019-02-17T14:14:46.469Z,99.90
2019-02-17T14:17:15.790Z,99.90
2019-02-17T14:19:45.119Z,99.90
2019-02-17T14:22:14.379Z,99.90
2019-02-17T14:24:43.842Z,99.90
2019-02-17T14:27:13.116Z,99.90
2019-02-17T14:29:43.000Z,99.90
2019-02-17T14:32:12.209Z,99.90
2019-02-17T14:34:41.545Z,99.90
2019-02-17T14:37:10.751Z,99.90
2019-02-17T14:39:40.004Z,99.90
2019-02-17T14:42:09.240Z,99.90
2019-02-17T14:44:38.480Z,99.90
2019-02-17T14:47:07.746Z,99.90
2019-02-17T14:49:37.107Z,99.30
2019-02-17T14:52:06.648Z,98.10
2019-02-17T14:54:35.944Z,98.80
2019-02-17T14:57:05.280Z,98.90
2019-02-17T14:59:34.567Z,99.20
2019-02-17T15:02:03.936Z,99.00
2019-02-17T15:04:33.919Z,99.90
2019-02-17T15:07:44.162Z,99.50
2019-02-17T15:10:22.116Z,98.40
2019-02-17T15:13:38.624Z,99.10
2019-02-17T15:16:15.562Z,97.50
2019-02-17T15:18:55.733Z,97.60
2019-02-17T15:21:31.554Z,98.00
2019-02-17T15:24:00.786Z,98.30
2019-02-17T15:26:30.142Z,99.90
2019-02-17T15:28:59.665Z,99.90
2019-02-17T15:31:30.931Z,99.90
2019-02-17T15:34:02.354Z,99.90
2019-02-17T15:36:31.671Z,99.90
2019-02-17T15:39:00.976Z,99.90
2019-02-17T15:41:30.516Z,99.90
2019-02-17T15:44:00.010Z,99.90
2019-02-17T15:46:29.366Z,99.90
2019-02-17T15:48:58.733Z,99.90
2019-02-17T15:51:28.330Z,99.90
2019-02-17T15:53:57.758Z,99.90
2019-02-17T15:56:27.140Z,99.90
2019-02-17T15:58:56.422Z,99.90
2019-02-17T16:01:25.716Z,99.90
2019-02-17T16:03:54.918Z,99.90
2019-02-17T16:06:24.262Z,99.90
2019-02-17T16:08:53.627Z,99.90
2019-02-17T16:11:22.994Z,99.90
2019-02-17T16:13:52.331Z,99.90
2019-02-17T16:16:21.682Z,99.90
2019-02-17T16:18:50.999Z,99.90
2019-02-17T16:21:23.652Z,99.90
2019-02-17T16:23:53.113Z,99.90
2019-02-17T16:26:22.426Z,99.90
2019-02-17T16:28:51.820Z,99.90
2019-02-17T16:31:21.421Z,99.90
2019-02-17T16:33:50.845Z,99.90
2019-02-17T16:36:20.212Z,99.90
2019-02-17T16:38:49.417Z,99.90
2019-02-17T16:41:18.777Z,99.90
2019-02-17T16:43:48.002Z,99.90
2019-02-17T16:46:17.839Z,99.90
2019-02-17T16:48:47.351Z,99.90
2019-02-17T16:51:16.745Z,99.90
2019-02-17T16:53:46.060Z,99.90
2019-02-17T16:56:15.381Z,99.90
2019-02-17T16:58:44.593Z,99.90
2019-02-17T17:01:13.882Z,99.90
2019-02-17T17:03:43.251Z,99.90
2019-02-17T17:06:12.999Z,99.90
2019-02-17T17:08:42.303Z,99.90
2019-02-17T17:11:11.727Z,99.90
2019-02-17T17:13:41.212Z,99.90
2019-02-17T17:16:10.628Z,99.90
2019-02-17T17:18:40.025Z,99.90
2019-02-17T17:21:09.416Z,99.90
2019-02-17T17:23:38.773Z,99.90
2019-02-17T17:26:09.334Z,99.90
2019-02-17T17:28:38.807Z,99.90
2019-02-17T17:31:08.116Z,99.90
2019-02-17T17:33:37.465Z,99.90
2019-02-17T17:36:06.946Z,99.90
2019-02-17T17:38:36.444Z,99.90
2019-02-17T17:41:06.302Z,99.90
2019-02-17T17:43:35.648Z,99.90
2019-02-17T17:46:04.981Z,99.90
2019-02-17T17:48:34.488Z,99.90
2019-02-17T17:51:05.261Z,99.90
2019-02-17T17:53:34.937Z,99.90
2019-02-17T17:56:04.308Z,99.90
2019-02-17T17:58:33.636Z,99.90
2019-02-17T18:01:02.896Z,99.90
2019-02-17T18:03:32.195Z,99.90
2019-02-17T18:06:01.552Z,99.90
2019-02-17T18:08:31.163Z,99.90
2019-02-17T18:11:00.498Z,99.90
2019-02-17T18:13:29.793Z,99.90
2019-02-17T18:15:59.093Z,99.90
2019-02-17T18:18:28.442Z,99.90
2019-02-17T18:20:57.741Z,99.90
2019-02-17T18:23:27.141Z,99.90
2019-02-17T18:25:56.376Z,99.90
2019-02-17T18:28:25.743Z,99.90
2019-02-17T18:30:55.128Z,99.90
2019-02-17T18:33:24.484Z,99.90
2019-02-17T18:35:53.828Z,99.90
2019-02-17T18:38:23.178Z,99.90
2019-02-17T18:40:52.500Z,99.90
2019-02-17T18:43:21.827Z,99.90
2019-02-17T18:45:51.115Z,99.90
2019-02-17T18:48:20.728Z,99.90
2019-02-17T18:50:58.934Z,99.90
2019-02-17T18:53:21.097Z,99.90
2019-02-17T18:55:50.381Z,99.90
2019-02-17T18:58:19.784Z,99.90
2019-02-17T19:00:49.104Z,99.90
2019-02-17T19:03:18.337Z,99.90
2019-02-17T19:05:47.930Z,99.90
2019-02-17T19:08:20.748Z,99.90
2019-02-17T19:10:50.137Z,99.90
2019-02-17T19:13:19.469Z,99.90
2019-02-17T19:15:50.306Z,99.90
2019-02-17T19:18:19.687Z,99.90
2019-02-17T19:20:49.083Z,99.90
2019-02-17T19:23:18.540Z,99.90
2019-02-17T19:25:48.036Z,99.90
2019-02-17T19:28:17.418Z,99.90
2019-02-17T19:30:46.798Z,99.90
2019-02-17T19:33:16.189Z,99.90
2019-02-17T19:35:46.095Z,99.90
2019-02-17T19:38:15.658Z,99.90
2019-02-17T19:40:45.160Z,99.90
2019-02-17T19:43:14.529Z,99.90
2019-02-17T19:45:44.072Z,99.90
2019-02-17T19:48:13.369Z,99.90
2019-02-17T19:50:42.878Z,99.90
2019-02-17T19:53:12.288Z,99.90
2019-02-17T19:55:41.692Z,99.90
2019-02-17T19:58:11.235Z,99.90
2019-02-17T20:00:40.595Z,99.90
2019-02-17T20:03:23.367Z,99.90
2019-02-17T20:05:57.208Z,99.90
2019-02-17T20:08:26.598Z,99.90
2019-02-17T20:10:56.256Z,99.90
2019-02-17T20:13:25.529Z,99.90
2019-02-17T20:15:54.949Z,99.90
2019-02-17T20:18:24.330Z,99.90
2019-02-17T20:20:53.729Z,99.90
2019-02-17T20:23:23.130Z,99.90
2019-02-17T20:25:52.513Z,99.90
2019-02-17T20:28:32.450Z,99.90
2019-02-17T20:30:52.952Z,99.90
2019-02-17T20:33:22.376Z,99.90
2019-02-17T20:36:01.786Z,99.90
2019-02-17T20:38:23.015Z,99.90
2019-02-17T20:40:52.379Z,99.90
2019-02-17T20:43:21.682Z,99.90
2019-02-17T20:45:51.219Z,99.90
2019-02-17T20:48:20.528Z,99.90
2019-02-17T20:50:49.935Z,99.90
2019-02-17T20:53:19.303Z,99.90
2019-02-17T20:55:48.707Z,99.90
2019-02-17T20:58:18.341Z,99.90
2019-02-17T21:00:47.556Z,99.90
2019-02-17T21:03:16.819Z,99.90
2019-02-17T21:05:46.114Z,99.90
2019-02-17T21:08:16.480Z,99.90
2019-02-17T21:10:45.791Z,99.90
2019-02-17T21:13:15.082Z,99.90
2019-02-17T21:15:44.348Z,99.90
2019-02-17T21:18:13.788Z,99.90
2019-02-17T21:20:43.362Z,99.90
2019-02-17T21:23:12.621Z,99.90
2019-02-17T21:25:41.986Z,99.90
2019-02-17T21:28:11.331Z,99.90
2019-02-17T21:30:40.644Z,99.90
2019-02-17T21:36:08.486Z,99.90
2019-02-17T21:38:38.046Z,99.90
2019-02-17T21:41:09.592Z,99.90
2019-02-17T21:43:38.786Z,99.90
2019-02-17T21:46:08.180Z,99.90
2019-02-17T21:48:37.541Z,99.90
2019-02-17T21:51:07.037Z,99.90
2019-02-17T21:53:36.343Z,99.90
2019-02-17T21:56:05.525Z,99.90
2019-02-17T21:58:34.735Z,99.90
2019-02-17T22:01:04.028Z,99.90
2019-02-17T22:03:33.298Z,99.90
2019-02-17T22:06:02.605Z,99.90
2019-02-17T22:08:32.002Z,99.90
2019-02-17T22:11:01.243Z,99.90
2019-02-17T22:13:30.512Z,99.90
2019-02-17T22:15:59.826Z,99.90
2019-02-17T22:18:29.804Z,99.90
2019-02-17T22:20:59.176Z,99.90
2019-02-17T22:23:28.450Z,99.90
2019-02-17T22:25:57.724Z,99.90
2019-02-17T22:28:27.181Z,99.90
2019-02-17T22:30:56.608Z,99.90
2019-02-17T22:33:25.787Z,99.90
2019-02-17T22:35:55.084Z,99.90
2019-02-17T22:38:24.365Z,99.90
2019-02-17T22:40:53.628Z,99.90
2019-02-17T22:43:22.785Z,99.90
2019-02-17T22:45:51.970Z,99.90
2019-02-17T22:48:21.141Z,99.90
2019-02-17T22:50:50.394Z,99.90
2019-02-17T22:53:19.651Z,99.90
2019-02-17T22:55:48.944Z,99.90
2019-02-17T22:58:18.161Z,99.90
2019-02-17T23:01:01.868Z,99.90
2019-02-17T23:03:31.705Z,99.90
2019-02-17T23:06:01.001Z,99.90
2019-02-17T23:08:30.485Z,99.90
2019-02-17T23:10:59.809Z,99.90
2019-02-17T23:13:29.021Z,99.90
2019-02-17T23:15:58.239Z,99.90
2019-02-17T23:18:27.541Z,99.90
2019-02-17T23:20:56.880Z,99.90
2019-02-17T23:23:26.208Z,99.90
2019-02-17T23:25:55.433Z,99.90
2019-02-17T23:28:24.767Z,99.90
2019-02-17T23:30:54.411Z,99.90
2019-02-17T23:33:23.775Z,99.90
2019-02-17T23:35:52.995Z,99.90
2019-02-17T23:38:22.215Z,99.90
2019-02-17T23:40:51.450Z,99.90
2019-02-17T23:43:20.682Z,99.90
2019-02-17T23:45:50.175Z,99.90
2019-02-17T23:48:19.511Z,99.90
2019-02-17T23:50:48.812Z,99.90
2019-02-17T23:53:18.473Z,99.90
2019-02-17T23:55:47.835Z,99.90
2019-02-17T23:58:17.062Z,99.90
